Airfield :
LOGIN :

Register | Disclaimer

   EN    FR    IT 

 










Legend :    VFR   Marginal VFR   IFR   Intensive IFR   Very Intensive IFR
Visi :
Ceiling :
>= 8 km
>= 3000ft
5 to 8 km
1000 to 3000 ft
1500m to 5 km
500 to 1000 ft
800 to 1500m
200 to 500 ft
< 800m
< 200 ft
Symbols :   Thunderstorms  Fog  Heavy snow  Heavy precipitations  Wind > 20 kt
SIGMETs :     Misc.  Thunderstorms  Icing  Turbulence  Mountain Waves  Volcanic Ashes







- Airport Elevation : 220 ft
- IATA code : CWL
- Download approach charts


EGFF - Cardiff Rhoose

CURRENT METAR :
  • 161420Z AUTO 26009KT 9999 BKN011 OVC016 19/17 Q1022

EXPIRED METARs :
  • 161350Z AUTO 27010KT 9999 BKN009 BKN015 OVC020 19/16 Q1022
  • 161320Z AUTO 27008KT 9999 BKN011 OVC021 19/16 Q1022
  • 161250Z 27008KT 230V300 9999 FEW008 BKN012 OVC023 19/16 Q1023
  • 161220Z 29008KT 9999 BKN005 BKN009 18/17 Q1023
  • 161150Z 28008KT 5000 -DZ BR BKN004 OVC009 17/17 Q1023

TAF AMD TAF EGFF
Valid from the 16 at 12:00 until the 17 at 12:00 UTC


161205Z 1612/1712 30010KT 9999 BKN014
TEMPO 1612/1619 4000 -DZ BR BKN004
BECMG 1616/1619 04008KT
BECMG 1619/1622 FEW025
ATIS : +44 1446 729 319
No reported NOTAMs for that airfield.



MET'MAP, your aeronautical weather chart ! - Copyright ORBIFLY December 2007 - Disclaimer

ORBIFLY MET'MAP TEAM :

Programming & Development : Alexandra Zaïnal
Concept & Development : Baudouin d'Aumeries
Co-Development & Prog : Marc-Olivier Méhu
Technical & hardware support : Manuel Goepfert

Contact : metmap@orbifly.com




SOURCES & CREDITS :

   NOAA